PWSweather.com
Personal Weather Stations
Station Observations
UPSTATEWEATHER
Silver Leaf, Greer, SC 29650

Silver LeafGreer, SC 29650

Lat: 34.8955792, Lon: -82.2868211

Elevation: 875

Station Type: Davis Vantage Vue

https://www.upstateweather.com

High Low Average
Temperature 81.9°F27.7°C 72.3°F22.4°C 75.5°F24.2°C
Dew Point 74.9°F23.8°C 70.9°F21.6°C 72.6°F22.6°C
Winds 1.2 mph 1.9 kmh Calm Calm Calm NCalm N
Wind Gusts 4.6 mph7.4 kmh -- --
Humidity 97% 77% 91%
Pressure 30.27 in1025.1 mb 30.15 in1021.0 mb -
Precipitation 0.00 in0.0 mm - -
Hour Temp Dew Point Humidity Winds Wind Gusts Pressure Precip Precip Rate Daily Precip Total
12:00 AM 72.3°F22.4°C 71.1°F21.7°C 96% Calm Calm -- 30.24 in1024.0 mb - 0.00 in0.0 mm 0.00 in0.0 mm
12:15 AM 72.3°F22.4°C 71.1°F21.7°C 96% Calm Calm -- 30.23 in1023.7 mb - 0.00 in0.0 mm 0.00 in0.0 mm
12:30 AM 72.3°F22.4°C 71.1°F21.7°C 96% Calm Calm -- 30.23 in1023.7 mb - 0.00 in0.0 mm 0.00 in0.0 mm
12:45 AM 72.3°F22.4°C 71.1°F21.7°C 96% Calm Calm -- 30.23 in1023.7 mb - 0.00 in0.0 mm 0.00 in0.0 mm
01:00 AM 72.3°F22.4°C 71.1°F21.7°C 96% Calm Calm -- 30.23 in1023.7 mb - 0.00 in0.0 mm 0.00 in0.0 mm
01:15 AM 72.4°F22.4°C 71.5°F21.9°C 97% Calm Calm -- 30.22 in1023.4 mb - 0.00 in0.0 mm 0.00 in0.0 mm
01:30 AM 72.4°F22.4°C 71.2°F21.8°C 96% Calm Calm -- 30.22 in1023.4 mb - 0.00 in0.0 mm 0.00 in0.0 mm
01:45 AM 72.4°F22.4°C 71.2°F21.8°C 96% Calm Calm -- 30.22 in1023.4 mb - 0.00 in0.0 mm 0.00 in0.0 mm
02:00 AM 72.5°F22.5°C 71.6°F22.0°C 97% Calm Calm -- 30.21 in1023.0 mb - 0.00 in0.0 mm 0.00 in0.0 mm
02:15 AM 72.5°F22.5°C 71.6°F22.0°C 97% Calm Calm -- 30.21 in1023.0 mb - 0.00 in0.0 mm 0.00 in0.0 mm
02:30 AM 72.6°F22.6°C 71.7°F22.1°C 97% Calm Calm -- 30.20 in1022.7 mb - 0.00 in0.0 mm 0.00 in0.0 mm
02:45 AM 72.7°F22.6°C 71.8°F22.1°C 97% Calm Calm -- 30.20 in1022.7 mb - 0.00 in0.0 mm 0.00 in0.0 mm
03:00 AM 72.7°F22.6°C 71.5°F21.9°C 96% Calm Calm -- 30.20 in1022.7 mb - 0.00 in0.0 mm 0.00 in0.0 mm
03:15 AM 72.8°F22.7°C 71.6°F22.0°C 96% Calm Calm -- 30.20 in1022.7 mb - 0.00 in0.0 mm 0.00 in0.0 mm
03:30 AM 72.7°F22.6°C 71.8°F22.1°C 97% Calm Calm -- 30.20 in1022.7 mb - 0.00 in0.0 mm 0.00 in0.0 mm
03:45 AM 72.7°F22.6°C 71.8°F22.1°C 97% Calm Calm -- 30.20 in1022.7 mb - 0.00 in0.0 mm 0.00 in0.0 mm
04:00 AM 72.7°F22.6°C 71.8°F22.1°C 97% Calm Calm -- 30.20 in1022.7 mb - 0.00 in0.0 mm 0.00 in0.0 mm
04:15 AM 72.7°F22.6°C 71.8°F22.1°C 97% Calm Calm -- 30.20 in1022.7 mb - 0.00 in0.0 mm 0.00 in0.0 mm
04:30 AM 72.7°F22.6°C 71.8°F22.1°C 97% Calm Calm -- 30.21 in1023.0 mb - 0.00 in0.0 mm 0.00 in0.0 mm
04:45 AM 72.7°F22.6°C 71.8°F22.1°C 97% Calm Calm -- 30.21 in1023.0 mb - 0.00 in0.0 mm 0.00 in0.0 mm
05:00 AM 72.7°F22.6°C 71.8°F22.1°C 97% Calm Calm -- 30.21 in1023.0 mb - 0.00 in0.0 mm 0.00 in0.0 mm
05:15 AM 72.7°F22.6°C 71.8°F22.1°C 97% Calm Calm -- 30.21 in1023.0 mb - 0.00 in0.0 mm 0.00 in0.0 mm
05:30 AM 72.7°F22.6°C 71.8°F22.1°C 97% Calm Calm -- 30.21 in1023.0 mb - 0.00 in0.0 mm 0.00 in0.0 mm
05:45 AM 72.7°F22.6°C 71.8°F22.1°C 97% Calm Calm -- 30.22 in1023.4 mb - 0.00 in0.0 mm 0.00 in0.0 mm
06:00 AM 72.7°F22.6°C 71.8°F22.1°C 97% Calm Calm -- 30.22 in1023.4 mb - 0.00 in0.0 mm 0.00 in0.0 mm
06:15 AM 72.6°F22.6°C 71.7°F22.1°C 97% Calm Calm -- 30.22 in1023.4 mb - 0.00 in0.0 mm 0.00 in0.0 mm
06:30 AM 72.6°F22.6°C 71.7°F22.1°C 97% Calm Calm -- 30.23 in1023.7 mb - 0.00 in0.0 mm 0.00 in0.0 mm
06:45 AM 72.5°F22.5°C 71.6°F22.0°C 97% Calm Calm -- 30.23 in1023.7 mb - 0.00 in0.0 mm 0.00 in0.0 mm
07:00 AM 72.4°F22.4°C 71.5°F21.9°C 97% Calm Calm -- 30.23 in1023.7 mb - 0.00 in0.0 mm 0.00 in0.0 mm
07:15 AM 72.4°F22.4°C 71.5°F21.9°C 97% Calm Calm -- 30.23 in1023.7 mb - 0.00 in0.0 mm 0.00 in0.0 mm
07:30 AM 72.5°F22.5°C 71.6°F22.0°C 97% Calm Calm -- 30.23 in1023.7 mb - 0.00 in0.0 mm 0.00 in0.0 mm
07:45 AM 72.5°F22.5°C 71.6°F22.0°C 97% Calm Calm -- 30.24 in1024.0 mb - 0.00 in0.0 mm 0.00 in0.0 mm
08:00 AM 72.4°F22.4°C 71.5°F21.9°C 97% Calm Calm 1.2 mph1.9 kmh 30.25 in1024.4 mb - 0.00 in0.0 mm 0.00 in0.0 mm
08:15 AM 72.4°F22.4°C 71.5°F21.9°C 97% Calm Calm -- 30.25 in1024.4 mb - 0.00 in0.0 mm 0.00 in0.0 mm
08:30 AM 72.4°F22.4°C 71.2°F21.8°C 96% Calm Calm -- 30.26 in1024.7 mb - 0.00 in0.0 mm 0.00 in0.0 mm
08:45 AM 72.7°F22.6°C 71.5°F21.9°C 96% Calm Calm -- 30.26 in1024.7 mb - 0.00 in0.0 mm 0.00 in0.0 mm
09:00 AM 73.1°F22.8°C 71.9°F22.2°C 96% Calm Calm 1.2 mph1.9 kmh 30.26 in1024.7 mb - 0.00 in0.0 mm 0.00 in0.0 mm
09:15 AM 73.1°F22.8°C 71.6°F22.0°C 95% Calm Calm -- 30.26 in1024.7 mb - 0.00 in0.0 mm 0.00 in0.0 mm
09:30 AM 73.1°F22.8°C 71.6°F22.0°C 95% Calm Calm -- 30.27 in1025.1 mb - 0.00 in0.0 mm 0.00 in0.0 mm
09:45 AM 73.3°F22.9°C 71.8°F22.1°C 95% Calm Calm -- 30.27 in1025.1 mb - 0.00 in0.0 mm 0.00 in0.0 mm
10:00 AM 73.7°F23.2°C 71.9°F22.2°C 94% Calm Calm 1.2 mph1.9 kmh 30.26 in1024.7 mb - 0.00 in0.0 mm 0.00 in0.0 mm
10:15 AM 74.1°F23.4°C 72.3°F22.4°C 94% Calm Calm -- 30.26 in1024.7 mb - 0.00 in0.0 mm 0.00 in0.0 mm
10:30 AM 74.5°F23.6°C 72.9°F22.7°C 95% Calm Calm -- 30.26 in1024.7 mb - 0.00 in0.0 mm 0.00 in0.0 mm
10:45 AM 75.1°F23.9°C 73.2°F22.9°C 94% Calm Calm 1.2 mph1.9 kmh 30.25 in1024.4 mb - 0.00 in0.0 mm 0.00 in0.0 mm
11:00 AM 75.7°F24.3°C 73.5°F23.1°C 93% Calm Calm -- 30.25 in1024.4 mb - 0.00 in0.0 mm 0.00 in0.0 mm
11:15 AM 76.0°F24.4°C 73.5°F23.1°C 92% Calm Calm -- 30.25 in1024.4 mb - 0.00 in0.0 mm 0.00 in0.0 mm
11:30 AM 76.3°F24.6°C 73.8°F23.2°C 92% Calm Calm -- 30.24 in1024.0 mb - 0.00 in0.0 mm 0.00 in0.0 mm
11:45 AM 77.4°F25.2°C 74.2°F23.4°C 90% Calm Calm -- 30.24 in1024.0 mb - 0.00 in0.0 mm 0.00 in0.0 mm
12:00 PM 78.1°F25.6°C 74.9°F23.8°C 90% Calm Calm -- 30.23 in1023.7 mb - 0.00 in0.0 mm 0.00 in0.0 mm
12:15 PM 78.5°F25.8°C 74.0°F23.3°C 86% Calm Calm 1.2 mph1.9 kmh 30.23 in1023.7 mb - 0.00 in0.0 mm 0.00 in0.0 mm
12:30 PM 79.3°F26.3°C 74.0°F23.3°C 84% Calm Calm -- 30.23 in1023.7 mb - 0.00 in0.0 mm 0.00 in0.0 mm
12:45 PM 78.9°F26.1°C 74.4°F23.6°C 86% Calm Calm -- 30.22 in1023.4 mb - 0.00 in0.0 mm 0.00 in0.0 mm
01:00 PM 79.4°F26.3°C 74.5°F23.6°C 85% Calm Calm -- 30.22 in1023.4 mb - 0.00 in0.0 mm 0.00 in0.0 mm
01:15 PM 79.7°F26.5°C 74.4°F23.6°C 84% Calm Calm -- 30.21 in1023.0 mb - 0.00 in0.0 mm 0.00 in0.0 mm
01:30 PM 79.9°F26.6°C 74.3°F23.5°C 83% Calm Calm -- 30.21 in1023.0 mb - 0.00 in0.0 mm 0.00 in0.0 mm
01:45 PM 80.3°F26.8°C 73.9°F23.3°C 81% 1.2 mph N1.9 kmh N 1.2 mph1.9 kmh 30.20 in1022.7 mb - 0.00 in0.0 mm 0.00 in0.0 mm
02:00 PM 81.2°F27.3°C 74.5°F23.6°C 80% 1.2 mph N1.9 kmh N 2.3 mph3.7 kmh 30.19 in1022.4 mb - 0.00 in0.0 mm 0.00 in0.0 mm
02:15 PM 81.0°F27.2°C 74.6°F23.7°C 81% Calm Calm -- 30.19 in1022.4 mb - 0.00 in0.0 mm 0.00 in0.0 mm
02:30 PM 81.2°F27.3°C 74.1°F23.4°C 79% 1.2 mph N1.9 kmh N 4.6 mph7.4 kmh 30.18 in1022.0 mb - 0.00 in0.0 mm 0.00 in0.0 mm
02:45 PM 81.6°F27.6°C 74.4°F23.6°C 79% Calm Calm -- 30.17 in1021.7 mb - 0.00 in0.0 mm 0.00 in0.0 mm
03:00 PM 81.9°F27.7°C 74.7°F23.7°C 79% Calm Calm 1.2 mph1.9 kmh 30.16 in1021.3 mb - 0.00 in0.0 mm 0.00 in0.0 mm
03:15 PM 81.2°F27.3°C 74.1°F23.4°C 79% Calm Calm -- 30.16 in1021.3 mb - 0.00 in0.0 mm 0.00 in0.0 mm
03:30 PM 81.0°F27.2°C 73.8°F23.2°C 79% Calm Calm -- 30.15 in1021.0 mb - 0.00 in0.0 mm 0.00 in0.0 mm
03:45 PM 80.6°F27.0°C 74.6°F23.7°C 82% Calm Calm -- 30.16 in1021.3 mb - 0.00 in0.0 mm 0.00 in0.0 mm
04:00 PM 81.3°F27.4°C 73.4°F23.0°C 77% Calm Calm 1.2 mph1.9 kmh 30.16 in1021.3 mb - 0.00 in0.0 mm 0.00 in0.0 mm
04:15 PM 81.3°F27.4°C 73.8°F23.2°C 78% Calm Calm -- 30.17 in1021.7 mb - 0.00 in0.0 mm 0.00 in0.0 mm
04:30 PM 81.3°F27.4°C 74.2°F23.4°C 79% Calm Calm -- 30.17 in1021.7 mb - 0.00 in0.0 mm 0.00 in0.0 mm
04:45 PM 81.5°F27.5°C 74.4°F23.6°C 79% Calm Calm -- 30.16 in1021.3 mb - 0.00 in0.0 mm 0.00 in0.0 mm
05:00 PM 81.3°F27.4°C 73.4°F23.0°C 77% Calm Calm -- 30.16 in1021.3 mb - 0.00 in0.0 mm 0.00 in0.0 mm
05:15 PM 80.6°F27.0°C 73.5°F23.1°C 79% Calm Calm -- 30.17 in1021.7 mb - 0.00 in0.0 mm 0.00 in0.0 mm
05:30 PM 79.9°F26.6°C 73.9°F23.3°C 82% Calm Calm -- 30.17 in1021.7 mb - 0.00 in0.0 mm 0.00 in0.0 mm
05:45 PM 79.6°F26.4°C 74.0°F23.3°C 83% Calm Calm -- 30.17 in1021.7 mb - 0.00 in0.0 mm 0.00 in0.0 mm
06:00 PM 79.2°F26.2°C 73.6°F23.1°C 83% Calm Calm -- 30.17 in1021.7 mb - 0.00 in0.0 mm 0.00 in0.0 mm
06:15 PM 78.8°F26.0°C 73.9°F23.3°C 85% Calm Calm -- 30.16 in1021.3 mb - 0.00 in0.0 mm 0.00 in0.0 mm
06:30 PM 78.4°F25.8°C 73.5°F23.1°C 85% Calm Calm -- 30.17 in1021.7 mb - 0.00 in0.0 mm 0.00 in0.0 mm
06:45 PM 77.9°F25.5°C 73.4°F23.0°C 86% Calm Calm -- 30.17 in1021.7 mb - 0.00 in0.0 mm 0.00 in0.0 mm
07:00 PM 77.5°F25.3°C 73.3°F22.9°C 87% Calm Calm -- 30.17 in1021.7 mb - 0.00 in0.0 mm 0.00 in0.0 mm
07:15 PM 77.2°F25.1°C 73.4°F23.0°C 88% Calm Calm -- 30.17 in1021.7 mb - 0.00 in0.0 mm 0.00 in0.0 mm
07:30 PM 76.6°F24.8°C 73.1°F22.8°C 89% Calm Calm -- 30.16 in1021.3 mb - 0.00 in0.0 mm 0.00 in0.0 mm
07:45 PM 76.4°F24.7°C 72.9°F22.7°C 89% Calm Calm -- 30.16 in1021.3 mb - 0.00 in0.0 mm 0.00 in0.0 mm
08:00 PM 76.2°F24.6°C 73.1°F22.8°C 90% Calm Calm -- 30.16 in1021.3 mb - 0.00 in0.0 mm 0.00 in0.0 mm
08:15 PM 76.0°F24.4°C 72.5°F22.5°C 89% Calm Calm -- 30.16 in1021.3 mb - 0.00 in0.0 mm 0.00 in0.0 mm
08:30 PM 75.8°F24.3°C 72.3°F22.4°C 89% Calm Calm -- 30.17 in1021.7 mb - 0.00 in0.0 mm 0.00 in0.0 mm
08:45 PM 75.7°F24.3°C 72.6°F22.6°C 90% Calm Calm -- 30.17 in1021.7 mb - 0.00 in0.0 mm 0.00 in0.0 mm
09:00 PM 75.3°F24.1°C 72.2°F22.3°C 90% Calm Calm -- 30.17 in1021.7 mb - 0.00 in0.0 mm 0.00 in0.0 mm
09:15 PM 75.1°F23.9°C 72.3°F22.4°C 91% Calm Calm -- 30.17 in1021.7 mb - 0.00 in0.0 mm 0.00 in0.0 mm
09:30 PM 74.9°F23.8°C 72.1°F22.3°C 91% Calm Calm -- 30.18 in1022.0 mb - 0.00 in0.0 mm 0.00 in0.0 mm
09:45 PM 74.6°F23.7°C 72.1°F22.3°C 92% Calm Calm -- 30.18 in1022.0 mb - 0.00 in0.0 mm 0.00 in0.0 mm
10:00 PM 74.0°F23.3°C 71.8°F22.1°C 93% Calm Calm -- 30.18 in1022.0 mb - 0.00 in0.0 mm 0.00 in0.0 mm
10:15 PM 73.7°F23.2°C 71.5°F21.9°C 93% Calm Calm -- 30.17 in1021.7 mb - 0.00 in0.0 mm 0.00 in0.0 mm
10:30 PM 73.5°F23.1°C 71.7°F22.1°C 94% Calm Calm -- 30.18 in1022.0 mb - 0.00 in0.0 mm 0.00 in0.0 mm
10:45 PM 73.5°F23.1°C 71.7°F22.1°C 94% Calm Calm -- 30.17 in1021.7 mb - 0.00 in0.0 mm 0.00 in0.0 mm
11:00 PM 73.2°F22.9°C 71.4°F21.9°C 94% Calm Calm -- 30.17 in1021.7 mb - 0.00 in0.0 mm 0.00 in0.0 mm
11:15 PM 72.9°F22.7°C 71.4°F21.9°C 95% Calm Calm -- 30.17 in1021.7 mb - 0.00 in0.0 mm 0.00 in0.0 mm
11:30 PM 72.6°F22.6°C 71.1°F21.7°C 95% Calm Calm -- 30.18 in1022.0 mb - 0.00 in0.0 mm 0.00 in0.0 mm
11:45 PM 72.4°F22.4°C 70.9°F21.6°C 95% Calm Calm -- 30.17 in1021.7 mb - 0.00 in0.0 mm 0.00 in0.0 mm